createdAt,value
2017-04-21T00:00:10.984Z,15.85
2017-04-21T00:01:09.179Z,14.80
2017-04-21T00:02:07.045Z,15.43
2017-04-21T00:03:04.970Z,13.93
2017-04-21T00:04:02.817Z,15.82
2017-04-21T00:05:00.658Z,15.12
2017-04-21T00:05:58.493Z,16.85
2017-04-21T00:06:56.309Z,16.00
2017-04-21T00:07:54.181Z,15.53
2017-04-21T00:08:51.998Z,17.17
2017-04-21T00:09:49.822Z,16.18
2017-04-21T00:10:47.685Z,14.80
2017-04-21T00:11:45.518Z,14.63
2017-04-21T00:12:43.342Z,15.95
2017-04-21T00:13:41.230Z,16.68
2017-04-21T00:14:39.075Z,16.15
2017-04-21T00:15:37.309Z,14.67
2017-04-21T00:16:35.505Z,15.45
2017-04-21T00:17:33.361Z,15.97
2017-04-21T00:18:31.391Z,15.28
2017-04-21T00:19:29.263Z,15.73
2017-04-21T00:20:27.089Z,16.98
2017-04-21T00:21:24.942Z,15.52
2017-04-21T00:22:22.762Z,16.22
2017-04-21T00:23:20.591Z,16.20
2017-04-21T00:24:18.414Z,14.82
2017-04-21T00:25:16.314Z,16.27
2017-04-21T00:26:14.134Z,15.00
2017-04-21T00:27:11.972Z,16.18
2017-04-21T00:28:09.798Z,17.25
2017-04-21T00:29:07.626Z,16.15
2017-04-21T00:30:05.469Z,15.97
2017-04-21T00:31:03.341Z,16.70
2017-04-21T00:32:01.165Z,14.50
2017-04-21T00:32:59.014Z,15.68
2017-04-21T00:33:57.219Z,16.78
2017-04-21T00:34:55.038Z,15.92
2017-04-21T00:35:52.869Z,15.95
2017-04-21T00:36:50.741Z,16.40
2017-04-21T00:37:48.597Z,16.73
2017-04-21T00:38:46.423Z,15.18
2017-04-21T00:39:44.250Z,16.43
2017-04-21T00:40:42.085Z,15.47
2017-04-21T00:41:39.906Z,17.00
2017-04-21T00:42:37.378Z,16.27
2017-04-21T00:43:35.205Z,16.68
2017-04-21T00:44:33.327Z,15.97
2017-04-21T00:45:31.137Z,16.40
2017-04-21T00:46:28.961Z,15.85
2017-04-21T00:47:26.793Z,15.23
2017-04-21T00:48:24.666Z,15.37
2017-04-21T00:49:22.489Z,14.72
2017-04-21T00:50:20.321Z,16.50
2017-04-21T00:52:22.386Z,15.73
2017-04-21T00:53:20.262Z,16.28
2017-04-21T00:54:17.793Z,15.08
2017-04-21T00:55:15.637Z,15.87
2017-04-21T00:56:13.500Z,16.23
2017-04-21T00:57:11.345Z,14.43
2017-04-21T00:58:09.249Z,15.78
2017-04-21T00:59:07.366Z,15.32
2017-04-21T01:00:05.239Z,15.68
2017-04-21T01:01:03.083Z,17.55
2017-04-21T01:02:00.926Z,14.88
2017-04-21T01:02:58.533Z,16.65
2017-04-21T01:03:56.372Z,15.12
2017-04-21T01:04:54.199Z,14.22
2017-04-21T01:05:52.062Z,15.12
2017-04-21T01:06:49.905Z,15.37
2017-04-21T01:07:47.739Z,14.88
2017-04-21T01:08:45.562Z,15.43
2017-04-21T01:09:43.416Z,15.60
2017-04-21T01:10:41.281Z,15.60
2017-04-21T01:11:39.161Z,16.05
2017-04-21T01:12:36.975Z,15.63
2017-04-21T01:13:34.802Z,16.15
2017-04-21T01:14:33.351Z,15.17
2017-04-21T01:15:31.233Z,14.40
2017-04-21T01:16:29.057Z,15.40
2017-04-21T01:17:27.281Z,15.72
2017-04-21T01:18:25.113Z,15.95
2017-04-21T01:19:22.942Z,14.82
2017-04-21T01:20:20.787Z,14.73
2017-04-21T01:21:18.618Z,15.78
2017-04-21T01:22:16.462Z,14.40
2017-04-21T01:23:14.322Z,15.80
2017-04-21T01:24:12.529Z,15.55
2017-04-21T01:25:10.365Z,15.87
2017-04-21T01:26:08.193Z,15.80
2017-04-21T01:27:06.013Z,15.72
2017-04-21T01:28:03.849Z,15.67
2017-04-21T01:29:01.719Z,15.63
2017-04-21T01:29:59.903Z,16.15
2017-04-21T01:30:57.905Z,14.80
2017-04-21T01:31:55.733Z,16.48
2017-04-21T01:32:53.567Z,15.43
2017-04-21T01:33:51.427Z,16.07
2017-04-21T01:34:49.245Z,16.00
2017-04-21T01:35:47.115Z,16.22
2017-04-21T01:36:45.306Z,15.05
2017-04-21T01:37:43.125Z,16.40
2017-04-21T01:38:40.986Z,14.80
2017-04-21T01:39:38.838Z,16.07
2017-04-21T01:40:36.662Z,16.30
2017-04-21T01:41:34.477Z,14.87
2017-04-21T01:42:32.593Z,15.27
2017-04-21T01:43:30.453Z,14.98
2017-04-21T01:44:28.269Z,15.55
2017-04-21T01:45:26.089Z,14.87
2017-04-21T01:46:23.949Z,14.62
2017-04-21T01:47:21.769Z,15.68
2017-04-21T01:48:19.586Z,17.25
2017-04-21T01:49:17.478Z,15.83
2017-04-21T01:50:15.290Z,17.43
2017-04-21T01:51:13.493Z,15.98
2017-04-21T01:52:11.314Z,15.93
2017-04-21T01:53:09.149Z,15.12
2017-04-21T01:54:06.971Z,16.57
2017-04-21T01:55:04.854Z,15.27
2017-04-21T01:56:02.752Z,16.55
2017-04-21T01:57:00.581Z,16.07
2017-04-21T01:57:58.397Z,15.55
2017-04-21T01:58:56.214Z,15.33
2017-04-21T01:59:54.030Z,16.02
2017-04-21T02:00:51.919Z,15.62
2017-04-21T02:01:49.741Z,17.12
2017-04-21T02:02:47.571Z,16.78
2017-04-21T02:03:45.404Z,16.23
2017-04-21T02:04:43.301Z,14.77
2017-04-21T02:05:41.159Z,14.08
2017-04-21T02:06:38.701Z,15.22
2017-04-21T02:07:36.527Z,15.85
2017-04-21T02:08:34.369Z,15.43
2017-04-21T02:09:32.221Z,14.72
2017-04-21T02:10:30.054Z,15.50
2017-04-21T02:11:27.510Z,14.87
2017-04-21T02:12:25.394Z,14.73
2017-04-21T02:13:23.227Z,15.08
2017-04-21T02:14:21.554Z,16.08
2017-04-21T02:15:19.403Z,15.53
2017-04-21T02:16:17.270Z,16.18
2017-04-21T02:17:15.097Z,15.35
2017-04-21T02:18:12.990Z,14.05
2017-04-21T02:19:10.819Z,15.75
2017-04-21T02:20:08.646Z,16.08
2017-04-21T02:21:06.473Z,15.13
2017-04-21T02:22:04.291Z,15.18
2017-04-21T02:23:02.121Z,16.02
2017-04-21T02:23:59.994Z,17.00
2017-04-21T02:24:57.818Z,16.28
2017-04-21T02:25:55.634Z,15.23
2017-04-21T02:26:53.457Z,16.42
2017-04-21T02:27:51.282Z,16.07
2017-04-21T02:28:49.117Z,16.02
2017-04-21T02:29:47.038Z,16.48
2017-04-21T02:30:44.478Z,15.63
2017-04-21T02:31:42.318Z,16.27
2017-04-21T02:32:40.149Z,17.22
2017-04-21T02:33:37.966Z,15.70
2017-04-21T02:34:35.809Z,16.85
2017-04-21T02:35:33.677Z,16.22
2017-04-21T02:36:31.508Z,15.28
2017-04-21T02:37:29.385Z,17.47
2017-04-21T02:38:27.193Z,16.05
2017-04-21T02:39:25.001Z,16.98
2017-04-21T02:40:22.886Z,16.30
2017-04-21T02:41:20.745Z,15.02
2017-04-21T02:42:18.561Z,16.78
2017-04-21T02:43:15.997Z,16.40
2017-04-21T02:44:13.810Z,15.35
2017-04-21T02:45:11.661Z,17.08
2017-04-21T02:46:09.474Z,16.85
2017-04-21T02:47:07.345Z,18.05
2017-04-21T02:48:05.157Z,18.08
2017-04-21T02:49:02.967Z,17.50
2017-04-21T02:50:00.778Z,17.90
2017-04-21T02:50:58.961Z,16.48
2017-04-21T02:51:56.778Z,16.90
2017-04-21T02:52:54.630Z,16.45
2017-04-21T02:53:52.524Z,17.32
2017-04-21T02:54:50.333Z,15.45
2017-04-21T02:55:48.135Z,17.17
2017-04-21T02:56:45.949Z,17.03
2017-04-21T02:57:43.762Z,17.45
2017-04-21T02:58:41.618Z,16.52
2017-04-21T02:59:39.429Z,17.68
2017-04-21T03:00:37.238Z,16.12
2017-04-21T03:01:35.058Z,16.13
2017-04-21T03:02:32.876Z,18.03
2017-04-21T03:03:30.695Z,16.73
2017-04-21T03:04:28.565Z,15.98
2017-04-21T03:05:26.373Z,17.35
2017-04-21T03:06:24.559Z,16.57
2017-04-21T03:07:22.371Z,16.03
2017-04-21T03:08:20.185Z,15.47
2017-04-21T03:09:17.999Z,17.68
2017-04-21T03:10:15.894Z,17.53
2017-04-21T03:11:13.722Z,17.08
2017-04-21T03:12:11.553Z,16.40
2017-04-21T03:13:09.369Z,16.32
2017-04-21T03:14:07.185Z,16.15
2017-04-21T03:15:04.985Z,17.50
2017-04-21T03:16:02.913Z,17.50
2017-04-21T03:17:00.777Z,17.68
2017-04-21T03:17:58.642Z,16.75
2017-04-21T03:18:56.462Z,19.02
2017-04-21T03:19:54.723Z,18.97
2017-04-21T03:20:52.524Z,17.23
2017-04-21T03:21:50.438Z,18.70
2017-04-21T03:22:48.261Z,18.50
2017-04-21T03:23:46.093Z,16.90
2017-04-21T03:24:43.913Z,17.87
2017-04-21T03:25:41.760Z,17.95
2017-04-21T03:26:39.581Z,19.28
2017-04-21T03:27:37.441Z,17.40
2017-04-21T03:28:35.641Z,16.90
2017-04-21T03:29:33.463Z,18.32
2017-04-21T03:30:31.309Z,18.40
2017-04-21T03:31:29.130Z,18.92
2017-04-21T03:32:27.009Z,16.75
2017-04-21T03:33:24.885Z,18.83
2017-04-21T03:34:22.733Z,17.50
2017-04-21T03:35:20.553Z,19.60
2017-04-21T03:36:18.374Z,17.25
2017-04-21T03:37:16.243Z,17.67
2017-04-21T03:38:14.066Z,18.40
2017-04-21T03:39:11.949Z,18.60
2017-04-21T03:40:09.808Z,18.08
2017-04-21T03:41:07.630Z,18.83
2017-04-21T03:42:05.456Z,17.65
2017-04-21T03:43:03.697Z,19.23
2017-04-21T03:44:01.547Z,18.38
2017-04-21T03:44:59.422Z,18.78
2017-04-21T03:45:57.242Z,18.75
2017-04-21T03:46:54.685Z,18.17
2017-04-21T03:47:52.511Z,18.53
2017-04-21T03:48:50.327Z,18.85
2017-04-21T03:49:48.169Z,17.48
2017-04-21T03:50:46.050Z,17.23
2017-04-21T03:51:43.869Z,18.50
2017-04-21T03:52:41.682Z,18.22
2017-04-21T03:53:39.502Z,18.38
2017-04-21T03:54:37.334Z,18.58
2017-04-21T03:55:35.181Z,18.13
2017-04-21T03:56:33.081Z,18.08
2017-04-21T03:57:30.901Z,18.82
2017-04-21T03:58:28.729Z,19.43
2017-04-21T03:59:26.921Z,19.40
2017-04-21T04:00:24.741Z,18.78
2017-04-21T04:01:22.576Z,18.22
2017-04-21T04:02:20.475Z,17.30
2017-04-21T04:03:18.322Z,18.12
2017-04-21T04:04:16.169Z,17.40
2017-04-21T04:05:14.001Z,19.70
2017-04-21T04:06:11.945Z,19.98
2017-04-21T04:07:09.773Z,16.97
2017-04-21T04:08:07.634Z,18.92
2017-04-21T04:09:05.478Z,19.08
2017-04-21T04:10:03.306Z,18.83
2017-04-21T04:11:01.165Z,17.95
2017-04-21T04:11:58.997Z,18.25
2017-04-21T04:12:57.198Z,21.85
2017-04-21T04:13:55.091Z,18.52
2017-04-21T04:14:52.919Z,18.48
2017-04-21T04:15:50.750Z,19.05
2017-04-21T04:16:48.752Z,18.73
2017-04-21T04:17:46.686Z,18.43
2017-04-21T04:18:44.521Z,17.82
2017-04-21T04:19:42.413Z,19.92
2017-04-21T04:20:40.233Z,18.67
2017-04-21T04:21:38.058Z,18.67
2017-04-21T04:22:35.881Z,19.45
2017-04-21T04:23:33.701Z,19.07
2017-04-21T04:24:31.543Z,17.32
2017-04-21T04:25:29.033Z,18.68
2017-04-21T04:26:27.249Z,20.70
2017-04-21T04:27:25.105Z,17.77
2017-04-21T04:28:22.929Z,16.72
2017-04-21T04:29:20.749Z,18.75
2017-04-21T04:30:18.570Z,18.43
2017-04-21T04:31:16.433Z,18.83
2017-04-21T04:32:14.265Z,19.03
2017-04-21T04:33:12.143Z,18.15
2017-04-21T04:34:09.969Z,18.62
2017-04-21T04:35:07.810Z,17.75
2017-04-21T04:36:05.637Z,18.20
2017-04-21T04:37:03.534Z,17.67
2017-04-21T04:38:00.974Z,18.70
2017-04-21T04:38:58.794Z,18.22
2017-04-21T04:39:56.613Z,18.95
2017-04-21T04:40:54.442Z,18.20
2017-04-21T04:41:52.261Z,19.45
2017-04-21T04:42:50.151Z,18.10
2017-04-21T04:43:47.983Z,19.63
2017-04-21T04:44:45.814Z,19.00
2017-04-21T04:45:43.662Z,18.00
2017-04-21T04:46:41.477Z,19.62
2017-04-21T04:47:39.315Z,17.83
2017-04-21T04:48:37.605Z,18.43
2017-04-21T04:49:35.450Z,18.88
2017-04-21T04:50:33.298Z,18.30
2017-04-21T04:51:31.184Z,19.20
2017-04-21T04:52:29.038Z,17.87
2017-04-21T04:53:26.887Z,18.08
2017-04-21T04:54:24.369Z,19.42
2017-04-21T04:55:22.210Z,19.10
2017-04-21T04:56:20.054Z,20.98
2017-04-21T04:57:17.897Z,19.23
2017-04-21T04:58:16.097Z,18.22
2017-04-21T04:59:13.916Z,20.90
2017-04-21T05:00:11.809Z,20.28
2017-04-21T05:01:09.630Z,18.85
2017-04-21T05:02:07.555Z,21.28
2017-04-21T05:03:05.801Z,19.25
2017-04-21T05:04:03.621Z,18.10
2017-04-21T05:05:01.843Z,19.77
2017-04-21T05:05:59.709Z,50.02
2017-04-21T05:06:57.542Z,21.13
2017-04-21T05:07:55.742Z,19.77
2017-04-21T05:08:53.569Z,20.87
2017-04-21T05:09:51.385Z,19.15
2017-04-21T05:10:49.222Z,19.48
2017-04-21T05:11:47.107Z,18.52
2017-04-21T05:12:45.175Z,20.23
2017-04-21T05:13:43.017Z,19.85
2017-04-21T05:14:40.853Z,18.08
2017-04-21T05:15:38.693Z,19.98
2017-04-21T05:16:36.565Z,19.95
2017-04-21T05:17:34.460Z,19.37
2017-04-21T05:18:32.385Z,18.65
2017-04-21T05:19:30.241Z,18.85
2017-04-21T05:20:28.089Z,18.45
2017-04-21T05:21:25.937Z,18.38
2017-04-21T05:22:23.771Z,19.55
2017-04-21T05:23:21.634Z,19.13
2017-04-21T05:24:19.469Z,18.52
2017-04-21T05:25:17.297Z,20.13
2017-04-21T05:26:15.127Z,18.72
2017-04-21T05:27:12.970Z,18.95
2017-04-21T05:28:10.834Z,19.43
2017-04-21T05:29:08.733Z,19.85
2017-04-21T05:30:06.590Z,19.37
2017-04-21T05:31:04.032Z,19.30
2017-04-21T05:32:01.878Z,18.77
2017-04-21T05:32:59.705Z,19.60
2017-04-21T05:33:57.581Z,21.45
2017-04-21T05:34:55.472Z,19.47
2017-04-21T05:35:53.294Z,18.90
2017-04-21T05:36:51.127Z,18.93
2017-04-21T05:37:48.982Z,20.92
2017-04-21T05:38:46.803Z,20.10
2017-04-21T05:39:44.637Z,19.58
2017-04-21T05:40:42.542Z,19.40
2017-04-21T05:41:40.393Z,18.82
2017-04-21T05:42:38.230Z,20.45
2017-04-21T05:43:36.061Z,19.65
2017-04-21T05:44:33.878Z,20.42
2017-04-21T05:45:31.737Z,19.70
2017-04-21T05:46:29.597Z,19.65
2017-04-21T05:47:27.413Z,21.53
2017-04-21T05:48:25.233Z,20.18
2017-04-21T05:49:23.058Z,20.65
2017-04-21T05:50:20.877Z,19.30
2017-04-21T05:51:18.822Z,21.03
2017-04-21T05:52:16.994Z,20.02
2017-04-21T05:53:14.813Z,20.13
2017-04-21T05:54:12.642Z,20.38
2017-04-21T05:55:10.464Z,19.58
2017-04-21T05:56:08.298Z,19.25
2017-04-21T05:57:06.161Z,21.27
2017-04-21T05:58:04.042Z,20.15
2017-04-21T05:59:01.491Z,19.55
2017-04-21T05:59:59.315Z,22.53
2017-04-21T06:00:57.171Z,20.25
2017-04-21T06:01:55.021Z,18.48
2017-04-21T06:02:52.842Z,20.80
2017-04-21T06:03:50.713Z,20.53
2017-04-21T06:04:48.709Z,21.85
2017-04-21T06:05:46.533Z,21.22
2017-04-21T06:06:44.358Z,18.65
2017-04-21T06:07:42.181Z,22.67
2017-04-21T06:08:40.006Z,21.88
2017-04-21T06:09:37.874Z,20.68
2017-04-21T06:10:35.725Z,19.97
2017-04-21T06:11:33.546Z,20.48
2017-04-21T06:12:31.389Z,20.82
2017-04-21T06:13:29.244Z,21.95
2017-04-21T06:14:27.445Z,19.43
2017-04-21T06:15:25.319Z,20.02
2017-04-21T06:16:23.148Z,19.73
2017-04-21T06:17:21.345Z,20.22
2017-04-21T06:18:19.161Z,19.40
2017-04-21T06:19:16.989Z,21.43
2017-04-21T06:20:14.829Z,20.70
2017-04-21T06:21:12.746Z,19.52
2017-04-21T06:22:10.569Z,20.52
2017-04-21T06:23:08.394Z,19.62
2017-04-21T06:24:06.240Z,20.03
2017-04-21T06:25:04.102Z,21.77
2017-04-21T06:26:01.922Z,21.05
2017-04-21T06:26:59.810Z,20.23
2017-04-21T06:27:57.641Z,20.73
2017-04-21T06:28:55.450Z,19.83
2017-04-21T06:29:53.259Z,20.65
2017-04-21T06:30:51.093Z,20.22
2017-04-21T06:31:48.904Z,18.88
2017-04-21T06:32:46.775Z,19.98
2017-04-21T06:33:44.637Z,21.15
2017-04-21T06:34:42.458Z,20.22
2017-04-21T06:35:40.285Z,22.22
2017-04-21T06:36:38.098Z,21.17
2017-04-21T06:37:35.910Z,21.10
2017-04-21T06:38:33.761Z,20.20
2017-04-21T06:39:31.573Z,18.83
2017-04-21T06:40:29.400Z,21.20
2017-04-21T06:41:27.276Z,21.07
2017-04-21T06:42:25.078Z,19.55
2017-04-21T06:43:22.902Z,20.73
2017-04-21T06:44:20.757Z,22.13
2017-04-21T06:45:18.577Z,20.75
2017-04-21T06:46:16.406Z,21.38
2017-04-21T06:47:14.217Z,20.95
2017-04-21T06:48:12.026Z,20.12
2017-04-21T06:49:09.837Z,21.08
2017-04-21T06:50:07.786Z,21.17
2017-04-21T06:51:05.598Z,20.50
2017-04-21T06:52:03.406Z,20.12
2017-04-21T06:53:01.222Z,21.40
2017-04-21T06:53:59.054Z,22.10
2017-04-21T06:54:56.877Z,21.30
2017-04-21T06:55:54.733Z,20.73
2017-04-21T06:56:52.565Z,21.20
2017-04-21T06:57:50.442Z,20.80
2017-04-21T06:58:48.253Z,21.58
2017-04-21T06:59:46.085Z,21.30
2017-04-21T07:00:43.901Z,21.62
2017-04-21T07:01:41.754Z,22.88
2017-04-21T07:02:54.258Z,22.07
2017-04-21T07:03:52.069Z,22.20
2017-04-21T07:04:49.878Z,22.58
2017-04-21T07:05:47.717Z,20.90
2017-04-21T07:06:45.570Z,22.37
2017-04-21T07:07:43.386Z,21.02
2017-04-21T07:08:41.198Z,21.35
2017-04-21T07:09:39.052Z,20.38
2017-04-21T07:10:36.882Z,21.80
2017-04-21T07:11:34.698Z,19.75
2017-04-21T07:12:33.319Z,21.85
2017-04-21T07:13:31.137Z,21.17
2017-04-21T07:14:28.954Z,20.45
2017-04-21T07:15:26.777Z,22.65
2017-04-21T07:16:24.604Z,21.53
2017-04-21T07:17:22.425Z,22.13
2017-04-21T07:18:20.962Z,22.57
2017-04-21T07:19:18.811Z,22.62
2017-04-21T07:20:16.628Z,21.85
2017-04-21T07:21:14.492Z,23.68
2017-04-21T07:22:12.749Z,24.18
2017-04-21T07:23:11.055Z,23.72
2017-04-21T07:24:08.924Z,24.27
2017-04-21T07:25:06.793Z,22.75
2017-04-21T07:26:04.623Z,22.43
2017-04-21T07:27:02.472Z,22.72
2017-04-21T07:28:00.354Z,22.35
2017-04-21T07:28:58.259Z,22.07
2017-04-21T07:29:56.166Z,24.05
2017-04-21T07:30:53.997Z,21.52
2017-04-21T07:31:51.821Z,22.58
2017-04-21T07:32:49.661Z,22.42
2017-04-21T07:33:47.891Z,23.33
2017-04-21T07:34:45.739Z,23.70
2017-04-21T07:36:41.522Z,23.28
2017-04-21T07:37:39.372Z,22.22
2017-04-21T07:38:37.206Z,24.00
2017-04-21T07:39:35.060Z,22.17
2017-04-21T07:40:32.899Z,22.78
2017-04-21T07:41:30.821Z,23.77
2017-04-21T07:42:29.033Z,22.97
2017-04-21T07:43:26.853Z,22.70
2017-04-21T07:44:24.681Z,22.83
2017-04-21T07:45:22.530Z,24.45
2017-04-21T07:46:20.353Z,22.92
2017-04-21T07:47:18.253Z,22.18
2017-04-21T07:48:16.081Z,23.07
2017-04-21T07:49:14.308Z,23.72
2017-04-21T07:50:12.165Z,23.15
2017-04-21T07:51:09.985Z,22.60
2017-04-21T07:52:07.863Z,24.10
2017-04-21T07:53:05.777Z,25.03
2017-04-21T07:54:03.630Z,23.15
2017-04-21T07:55:01.458Z,26.63
2017-04-21T07:55:59.324Z,23.77
2017-04-21T07:56:57.166Z,24.25
2017-04-21T07:57:54.993Z,24.60
2017-04-21T07:58:52.942Z,23.30
2017-04-21T07:59:57.531Z,24.15
2017-04-21T08:00:48.686Z,24.57
2017-04-21T08:01:46.545Z,24.35
2017-04-21T08:02:44.401Z,24.67
2017-04-21T08:03:41.877Z,24.65
2017-04-21T08:04:39.787Z,23.98
2017-04-21T08:05:37.633Z,25.63
2017-04-21T08:06:35.469Z,25.00
2017-04-21T08:07:33.330Z,25.73
2017-04-21T08:08:31.154Z,24.82
2017-04-21T08:09:29.005Z,26.32
2017-04-21T08:10:27.001Z,24.73
2017-04-21T08:11:24.857Z,25.13
2017-04-21T08:12:23.039Z,24.35
2017-04-21T08:13:20.942Z,24.75
2017-04-21T08:14:18.398Z,22.40
2017-04-21T08:15:16.237Z,25.58
2017-04-21T08:16:14.149Z,25.07
2017-04-21T08:17:11.977Z,27.58
2017-04-21T08:18:09.806Z,45.08
2017-04-21T08:19:07.645Z,54.32
2017-04-21T08:20:05.458Z,31.08
2017-04-21T08:21:03.278Z,28.63
2017-04-21T08:22:01.158Z,27.87
2017-04-21T08:22:58.986Z,26.55
2017-04-21T08:23:56.814Z,26.65
2017-04-21T08:24:54.662Z,25.90
2017-04-21T08:25:52.494Z,25.65
2017-04-21T08:26:50.377Z,25.60
2017-04-21T08:27:48.249Z,25.28
2017-04-21T08:28:46.117Z,26.23
2017-04-21T08:29:43.945Z,27.13
2017-04-21T08:30:41.781Z,27.20
2017-04-21T08:31:39.613Z,26.22
2017-04-21T08:32:37.434Z,26.53
2017-04-21T08:33:35.667Z,24.78
2017-04-21T08:34:33.505Z,27.47
2017-04-21T08:35:31.422Z,27.35
2017-04-21T08:36:29.257Z,28.78
2017-04-21T08:37:27.469Z,28.48
2017-04-21T08:38:25.294Z,28.20
2017-04-21T08:39:23.157Z,33.33
2017-04-21T08:40:20.986Z,29.55
2017-04-21T08:41:18.870Z,28.37
2017-04-21T08:42:16.699Z,27.43
2017-04-21T08:43:14.536Z,26.92
2017-04-21T08:44:12.765Z,29.05
2017-04-21T08:45:10.651Z,27.08
2017-04-21T08:46:08.545Z,27.73
2017-04-21T08:47:06.369Z,26.98
2017-04-21T08:48:04.189Z,29.75
2017-04-21T08:49:02.021Z,29.58
2017-04-21T08:49:59.838Z,31.57
2017-04-21T08:50:57.712Z,29.15
2017-04-21T08:51:55.559Z,29.28
2017-04-21T08:52:53.685Z,29.62
2017-04-21T08:53:51.526Z,29.07
2017-04-21T08:54:49.361Z,29.83
2017-04-21T08:55:46.795Z,29.03
2017-04-21T08:56:44.718Z,29.73
2017-04-21T08:57:42.538Z,29.33
2017-04-21T08:58:40.440Z,29.73
2017-04-21T08:59:38.301Z,30.43
2017-04-21T09:00:36.139Z,30.07
2017-04-21T09:01:33.973Z,28.75
2017-04-21T09:02:31.837Z,28.65
2017-04-21T09:03:29.690Z,29.53
2017-04-21T09:04:27.129Z,29.32
2017-04-21T09:05:24.946Z,31.08
2017-04-21T09:06:22.804Z,29.08
2017-04-21T09:07:20.841Z,29.22
2017-04-21T09:08:18.703Z,29.03
2017-04-21T09:09:16.602Z,29.10
2017-04-21T09:10:14.437Z,30.30
2017-04-21T09:11:12.384Z,27.47
2017-04-21T09:12:10.209Z,30.30
2017-04-21T09:13:08.026Z,34.02
2017-04-21T09:14:06.275Z,35.87
2017-04-21T09:15:04.091Z,31.00
2017-04-21T09:16:02.142Z,28.70
2017-04-21T09:17:00.290Z,29.92
2017-04-21T09:17:58.150Z,30.10
2017-04-21T09:18:56.002Z,30.43
2017-04-21T09:19:53.905Z,29.98
2017-04-21T09:20:51.733Z,30.97
2017-04-21T09:21:49.564Z,28.43
2017-04-21T09:22:47.405Z,31.42
2017-04-21T09:23:45.242Z,31.08
2017-04-21T09:24:43.066Z,31.55
2017-04-21T09:25:41.081Z,31.47
2017-04-21T09:26:38.918Z,30.90
2017-04-21T09:27:36.770Z,30.00
2017-04-21T09:28:34.606Z,30.40
2017-04-21T09:29:32.770Z,29.00
2017-04-21T09:30:30.610Z,29.88
2017-04-21T09:31:28.466Z,30.80
2017-04-21T09:32:26.294Z,31.10
2017-04-21T09:33:24.141Z,32.45
2017-04-21T09:34:33.409Z,32.67
2017-04-21T09:35:34.401Z,30.78
2017-04-21T09:36:17.738Z,31.20
2017-04-21T09:37:15.689Z,30.90
2017-04-21T09:38:13.495Z,31.03
2017-04-21T09:39:11.438Z,29.67
2017-04-21T09:40:09.474Z,29.03
2017-04-21T09:41:07.337Z,29.33
2017-04-21T09:42:11.290Z,30.27
2017-04-21T09:43:03.084Z,29.90
2017-04-21T09:44:01.273Z,29.20
2017-04-21T09:44:59.454Z,29.60
2017-04-21T09:45:57.290Z,31.60
2017-04-21T09:46:55.437Z,30.85
2017-04-21T09:47:53.928Z,29.40
2017-04-21T09:48:52.008Z,31.53
2017-04-21T09:49:49.973Z,31.33
2017-04-21T09:50:54.226Z,28.95
2017-04-21T09:53:43.985Z,30.95
2017-04-21T09:54:14.225Z,32.30
2017-04-21T09:54:46.152Z,33.12
2017-04-21T09:56:55.848Z,30.42
2017-04-21T09:56:55.853Z,30.10
2017-04-21T09:57:18.808Z,31.70
2017-04-21T10:00:53.929Z,31.22
2017-04-21T10:01:32.402Z,30.78
2017-04-21T10:02:58.228Z,31.90
2017-04-21T10:04:21.624Z,31.57
2017-04-21T10:04:31.539Z,31.87
2017-04-21T10:04:49.587Z,32.50
2017-04-21T10:04:53.981Z,30.10
2017-04-21T10:05:24.283Z,31.25
2017-04-21T10:06:25.951Z,29.60
2017-04-21T10:08:06.447Z,30.70
2017-04-21T10:08:06.465Z,31.33
2017-04-21T10:08:21.617Z,31.10
2017-04-21T10:09:16.270Z,31.43
2017-04-21T10:10:14.294Z,31.05
2017-04-21T10:11:12.501Z,30.93
2017-04-21T10:12:10.732Z,32.58
2017-04-21T10:13:08.946Z,30.48
2017-04-21T10:14:07.411Z,32.33
2017-04-21T10:15:05.394Z,30.80
2017-04-21T10:16:03.948Z,31.52
2017-04-21T10:17:02.018Z,31.22
2017-04-21T10:17:59.843Z,34.20
2017-04-21T10:18:58.085Z,31.83
2017-04-21T10:19:56.058Z,31.47
2017-04-21T10:20:53.914Z,31.02
2017-04-21T10:21:52.227Z,30.10
2017-04-21T10:22:50.476Z,30.35
2017-04-21T10:23:48.374Z,31.23
2017-04-21T10:24:45.846Z,31.42
2017-04-21T10:25:43.702Z,30.98
2017-04-21T10:26:41.561Z,30.12
2017-04-21T10:27:39.390Z,32.07
2017-04-21T10:28:37.298Z,31.40
2017-04-21T10:29:35.155Z,31.52
2017-04-21T10:30:33.049Z,30.80
2017-04-21T10:31:30.889Z,31.42
2017-04-21T10:32:28.717Z,30.95
2017-04-21T10:33:26.582Z,31.37
2017-04-21T10:34:24.409Z,30.55
2017-04-21T10:35:22.254Z,30.75
2017-04-21T10:36:20.174Z,29.23
2017-04-21T10:37:18.041Z,30.52
2017-04-21T10:38:15.901Z,31.42
2017-04-21T10:39:13.749Z,29.98
2017-04-21T10:40:11.626Z,31.62
2017-04-21T10:41:09.493Z,31.27
2017-04-21T10:42:07.383Z,30.68
2017-04-21T10:43:05.234Z,30.55
2017-04-21T10:44:03.174Z,31.15
2017-04-21T10:45:01.081Z,31.20
2017-04-21T10:45:58.937Z,30.12
2017-04-21T10:46:56.782Z,30.12
2017-04-21T10:47:54.685Z,31.48
2017-04-21T10:48:52.534Z,33.77
2017-04-21T10:49:50.402Z,30.77
2017-04-21T10:50:48.277Z,30.83
2017-04-21T10:51:46.209Z,30.77
2017-04-21T10:52:43.678Z,30.00
2017-04-21T10:53:42.478Z,32.38
2017-04-21T10:54:40.364Z,29.38
2017-04-21T10:55:38.242Z,29.22
2017-04-21T10:56:36.110Z,27.95
2017-04-21T10:57:34.061Z,29.95
2017-04-21T10:58:32.047Z,29.40
2017-04-21T10:59:29.954Z,30.33
2017-04-21T11:00:27.793Z,28.70
2017-04-21T11:01:25.837Z,29.93
2017-04-21T11:02:23.685Z,28.95
2017-04-21T11:03:21.558Z,29.65
2017-04-21T11:04:19.409Z,28.20
2017-04-21T11:05:17.281Z,29.22
2017-04-21T11:06:15.137Z,28.95
2017-04-21T11:07:12.999Z,27.13
2017-04-21T11:08:10.831Z,28.33
2017-04-21T11:09:08.662Z,29.15
2017-04-21T11:10:06.509Z,29.00
2017-04-21T11:11:04.430Z,29.13
2017-04-21T11:12:02.369Z,31.55
2017-04-21T11:13:00.200Z,28.80
2017-04-21T11:13:58.140Z,29.08
2017-04-21T11:14:56.024Z,30.67
2017-04-21T11:15:53.966Z,28.58
2017-04-21T11:16:51.873Z,29.50
2017-04-21T11:17:49.766Z,29.93
2017-04-21T11:18:47.611Z,30.40
2017-04-21T11:19:45.461Z,28.85
2017-04-21T11:20:42.934Z,30.53
2017-04-21T11:21:40.809Z,28.88
2017-04-21T11:22:38.713Z,29.95
2017-04-21T11:23:36.565Z,32.47
2017-04-21T11:24:34.430Z,31.15
2017-04-21T11:25:32.285Z,42.65
2017-04-21T11:26:30.140Z,33.27
2017-04-21T11:27:27.973Z,35.25
2017-04-21T11:28:26.127Z,33.27
2017-04-21T11:29:23.995Z,28.57
2017-04-21T11:30:21.847Z,29.78
2017-04-21T11:31:20.087Z,28.98
2017-04-21T11:32:17.962Z,27.95
2017-04-21T11:33:15.960Z,30.60
2017-04-21T11:34:14.173Z,28.23
2017-04-21T11:35:12.311Z,29.45
2017-04-21T11:36:10.151Z,30.05
2017-04-21T11:37:07.989Z,29.62
2017-04-21T11:38:05.839Z,30.25
2017-04-21T11:39:04.593Z,28.58
2017-04-21T11:40:02.450Z,28.13
2017-04-21T11:41:00.810Z,30.68
2017-04-21T11:41:58.272Z,28.10
2017-04-21T11:42:56.154Z,28.27
2017-04-21T11:43:54.270Z,27.70
2017-04-21T11:44:52.433Z,29.40
2017-04-21T11:45:50.441Z,27.05
2017-04-21T11:46:48.977Z,28.70
2017-04-21T11:47:47.348Z,27.52
2017-04-21T11:48:46.515Z,30.32
2017-04-21T11:49:44.343Z,26.93
2017-04-21T11:50:42.687Z,29.87
2017-04-21T11:51:41.992Z,29.43
2017-04-21T11:52:40.622Z,28.83
2017-04-21T11:53:38.521Z,28.78
2017-04-21T11:54:36.743Z,27.78
2017-04-21T11:55:34.633Z,28.90
2017-04-21T11:56:32.441Z,29.95
2017-04-21T11:57:31.027Z,29.47
2017-04-21T11:58:30.170Z,28.90
2017-04-21T11:59:28.030Z,28.22
2017-04-21T12:00:25.850Z,29.33
2017-04-21T12:01:23.749Z,28.00
2017-04-21T12:02:21.606Z,27.22
2017-04-21T12:03:20.025Z,23.18
2017-04-21T12:04:17.838Z,25.23
2017-04-21T12:05:15.913Z,19.58
2017-04-21T12:06:13.768Z,18.65
2017-04-21T12:07:11.618Z,18.53
2017-04-21T12:08:09.886Z,19.98
2017-04-21T12:09:07.413Z,18.92
2017-04-21T12:10:05.390Z,20.20
2017-04-21T12:11:03.285Z,20.08
2017-04-21T12:12:01.656Z,19.88
2017-04-21T12:13:00.425Z,20.98
2017-04-21T12:13:59.410Z,20.17
2017-04-21T12:14:57.274Z,21.47
2017-04-21T12:15:55.148Z,20.82
2017-04-21T12:16:53.482Z,21.33
2017-04-21T12:17:51.570Z,22.58
2017-04-21T12:18:49.883Z,22.50
2017-04-21T12:19:48.095Z,21.93
2017-04-21T12:20:45.997Z,22.58
2017-04-21T12:21:43.821Z,22.20
2017-04-21T12:22:41.681Z,21.43
2017-04-21T12:23:40.023Z,21.22
2017-04-21T12:24:37.564Z,22.12
2017-04-21T12:25:35.901Z,22.03
2017-04-21T12:26:33.972Z,20.47
2017-04-21T12:27:31.890Z,22.93